Time;durP1;ratioP1;P1;durP2;ratioP2;P2;SDS_P1;SDS_P2;PMS_P1;PMS_P2;Temp;Humidity;BMP_temperature;BMP_pressure;BME280_temperature;BME280_humidity;BME280_pressure;Samples;Min_cycle;Max_cycle;Signal;HPM_P1;HPM_P2
2021/09/27 00:01:00;;;;;;;12.73;8.75;;;;;;;17.41;87.71;101419.38;5113387;28;20398;-51
2021/09/27 00:03:28;;;;;;;14.20;8.65;;;;;;;17.37;88.21;101424.69;5112962;28;20524;-50
2021/09/27 00:05:57;;;;;;;12.23;8.20;;;;;;;17.38;88.02;101417.22;5113914;28;20066;-54
2021/09/27 00:08:25;;;;;;;10.75;7.93;;;;;;;17.37;87.83;101413.66;5102586;28;20043;-55
2021/09/27 00:10:55;;;;;;;12.75;8.48;;;;;;;17.37;88.28;101410.91;5113127;28;20040;-49
2021/09/27 00:13:26;;;;;;;10.60;7.10;;;;;;;17.39;87.94;101410.59;5114947;28;20118;-52
2021/09/27 00:15:55;;;;;;;11.30;7.90;;;;;;;17.38;88.22;101409.78;5106741;28;20126;-51
2021/09/27 00:18:23;;;;;;;13.50;8.32;;;;;;;17.42;88.30;101412.75;5113552;28;20042;-55
2021/09/27 00:20:54;;;;;;;12.05;7.78;;;;;;;17.41;87.32;101408.34;5110295;28;20063;-54
2021/09/27 00:23:23;;;;;;;11.68;7.22;;;;;;;17.32;87.47;101419.25;5101379;28;20036;-53
2021/09/27 00:25:51;;;;;;;14.38;8.55;;;;;;;17.28;88.22;101420.97;5105478;28;20044;-54
2021/09/27 00:28:18;;;;;;;15.07;7.85;;;;;;;17.26;87.86;101417.69;5113182;28;20050;-51
2021/09/27 00:30:47;;;;;;;12.75;7.43;;;;;;;17.18;88.30;101415.59;5110816;28;20040;-55
2021/09/27 00:33:17;;;;;;;13.93;8.35;;;;;;;17.16;88.47;101417.84;5113910;28;20040;-49
2021/09/27 00:35:45;;;;;;;13.60;7.82;;;;;;;17.14;88.33;101409.06;5113669;28;20059;-55
2021/09/27 00:38:13;;;;;;;12.70;7.80;;;;;;;17.10;88.60;101408.84;5114039;28;20035;-56
2021/09/27 00:40:53;;;;;;;13.77;7.72;;;;;;;17.11;89.03;101413.22;5111036;28;20191;-52
2021/09/27 00:43:21;;;;;;;12.77;8.23;;;;;;;17.11;88.92;101407.72;5097914;28;20119;-52
2021/09/27 00:45:58;;;;;;;15.50;7.90;;;;;;;17.10;88.41;101399.75;5113857;28;20054;-54
2021/09/27 00:48:27;;;;;;;12.57;7.53;;;;;;;17.07;88.72;101401.16;5114038;28;20071;-51
2021/09/27 00:51:03;;;;;;;14.07;7.75;;;;;;;17.02;88.92;101396.53;5110669;27;20122;-54
2021/09/27 00:53:43;;;;;;;13.55;7.50;;;;;;;16.99;88.98;101391.63;5108709;28;20474;-53
2021/09/27 00:56:13;;;;;;;14.60;8.60;;;;;;;16.99;89.64;101388.88;5113447;28;20517;-54
2021/09/27 00:58:40;;;;;;;13.02;8.20;;;;;;;17.00;89.33;101393.28;5113915;28;20038;-52
2021/09/27 01:01:08;;;;;;;14.05;7.80;;;;;;;17.01;89.05;101389.41;5110678;28;20100;-53
2021/09/27 01:03:36;;;;;;;12.32;7.60;;;;;;;16.97;88.78;101387.53;5111656;28;20099;-49
2021/09/27 01:06:12;;;;;;;12.43;7.50;;;;;;;16.92;88.88;101395.88;5111649;28;20062;-53
2021/09/27 01:09:12;;;;;;;12.23;7.18;;;;;;;16.87;89.46;101394.00;5109287;28;20028;-53
2021/09/27 01:12:07;;;;;;;14.82;7.90;;;;;;;16.93;90.05;101390.09;5098662;28;20036;-52
2021/09/27 01:15:05;;;;;;;13.32;6.95;;;;;;;16.99;89.64;101377.88;5108657;28;20035;-52
2021/09/27 01:17:54;;;;;;;11.20;7.40;;;;;;;17.02;89.19;101373.69;5105776;28;20410;-51
2021/09/27 01:20:24;;;;;;;18.42;8.27;;;;;;;16.99;89.05;101379.81;5105289;28;20402;-49
2021/09/27 01:22:58;;;;;;;11.45;7.70;;;;;;;16.98;89.15;101378.16;5105046;28;20097;-52
2021/09/27 01:25:49;;;;;;;11.93;7.55;;;;;;;17.00;89.08;101376.78;5107216;28;20039;-50
2021/09/27 01:28:32;;;;;;;12.20;7.82;;;;;;;17.00;89.35;101371.28;5112933;28;20482;-56
2021/09/27 01:31:21;;;;;;;12.82;7.70;;;;;;;17.01;89.00;101377.59;5107389;28;20494;-55
2021/09/27 01:33:58;;;;;;;12.52;8.23;;;;;;;17.03;89.21;101380.88;5098048;28;20043;-50
2021/09/27 01:36:50;;;;;;;12.60;8.13;;;;;;;17.05;89.11;101367.59;5110059;28;20057;-52
2021/09/27 01:39:43;;;;;;;15.02;8.80;;;;;;;17.07;88.67;101381.06;5113425;28;20426;-52
2021/09/27 01:42:22;;;;;;;10.07;7.28;;;;;;;17.03;88.30;101384.44;5106531;28;20039;-54
2021/09/27 01:45:08;;;;;;;12.73;7.93;;;;;;;17.01;88.75;101391.34;5112015;28;20108;-52
2021/09/27 01:48:00;;;;;;;12.30;6.82;;;;;;;17.03;88.95;101389.13;5103862;28;20111;-55
2021/09/27 01:50:53;;;;;;;14.23;8.05;;;;;;;17.01;88.56;101380.34;5097087;28;20413;-53
2021/09/27 01:53:25;;;;;;;13.75;7.90;;;;;;;16.96;88.48;101375.72;5108791;28;20070;-55
2021/09/27 01:56:02;;;;;;;14.15;7.97;;;;;;;16.91;88.47;101367.53;5097624;28;20059;-51
2021/09/27 01:58:58;;;;;;;12.48;8.32;;;;;;;16.89;88.69;101368.97;5109561;28;20035;-52
2021/09/27 02:01:25;;;;;;;;;;;;;;;16.84;89.08;101367.09;5098171;28;20036;-53
2021/09/27 02:04:02;;;;;;;12.30;7.63;;;;;;;16.83;88.94;101365.44;5111391;28;20297;-54
2021/09/27 02:06:43;;;;;;;14.43;7.50;;;;;;;16.79;88.99;101364.41;5096473;28;20048;-54
2021/09/27 02:09:28;;;;;;;11.07;7.47;;;;;;;16.72;89.31;101363.94;5110835;28;20145;-52
2021/09/27 02:12:01;;;;;;;13.15;7.20;;;;;;;16.70;89.53;101360.66;5098908;28;20039;-52
2021/09/27 02:14:29;;;;;;;14.32;7.75;;;;;;;16.71;90.17;101356.78;5106500;28;20417;-53
2021/09/27 02:17:19;;;;;;;12.23;7.80;;;;;;;16.71;90.04;101356.78;5109322;28;20050;-53
2021/09/27 02:19:49;;;;;;;12.73;7.97;;;;;;;16.69;89.88;101353.50;5102302;28;20039;-56
2021/09/27 02:22:24;;;;;;;13.73;7.10;;;;;;;16.70;90.24;101363.41;5102006;28;20044;-52
2021/09/27 02:25:16;;;;;;;13.75;7.80;;;;;;;16.71;89.44;101362.28;5102031;28;20394;-53
2021/09/27 02:27:45;;;;;;;12.45;7.63;;;;;;;16.66;89.86;101360.41;5109719;28;20028;-52
2021/09/27 02:30:17;;;;;;;11.75;7.35;;;;;;;16.64;89.91;101364.56;5112148;28;20401;-51
2021/09/27 02:32:44;;;;;;;14.88;7.40;;;;;;;16.64;90.11;101356.31;5104789;28;20046;-53
2021/09/27 02:35:29;;;;;;;12.27;7.45;;;;;;;16.65;89.97;101357.97;5099455;28;20043;-54
2021/09/27 02:38:17;;;;;;;11.05;7.72;;;;;;;16.65;90.25;101358.78;5106459;28;20023;-51
2021/09/27 02:41:18;;;;;;;12.95;7.85;;;;;;;16.62;90.07;101353.88;5095642;28;20098;-56
2021/09/27 02:43:46;;;;;;;14.27;7.70;;;;;;;16.59;90.10;101352.50;5105538;28;20055;-54
2021/09/27 02:46:14;;;;;;;12.90;7.25;;;;;;;16.58;90.51;101348.13;5100346;28;20393;-49
2021/09/27 02:48:53;;;;;;;13.00;7.10;;;;;;;16.58;90.39;101341.81;5105624;28;20088;-54
2021/09/27 02:51:22;;;;;;;14.50;7.78;;;;;;;16.58;90.69;101352.81;5111519;28;20395;-52
2021/09/27 02:53:51;;;;;;;10.90;7.38;;;;;;;16.59;90.40;101344.25;5104344;28;20109;-55
2021/09/27 02:56:57;;;;;;;11.55;7.00;;;;;;;16.61;90.57;101341.22;5105824;28;20043;-55
2021/09/27 02:59:44;;;;;;;18.98;7.72;;;;;;;16.64;90.42;101337.88;5048153;28;20495;-55
2021/09/27 03:02:11;;;;;;;16.88;7.40;;;;;;;16.66;90.06;101338.41;5031593;28;20045;-55
2021/09/27 03:04:57;;;;;;;14.15;8.05;;;;;;;16.65;90.17;101336.78;5050379;28;20056;-52
2021/09/27 03:07:46;;;;;;;10.82;7.15;;;;;;;16.69;89.91;101331.47;5052261;28;20049;-53
2021/09/27 03:10:38;;;;;;;14.38;7.38;;;;;;;16.73;89.92;101327.84;5052963;28;20056;-53
2021/09/27 03:13:31;;;;;;;11.65;7.32;;;;;;;16.74;89.78;101323.16;5035995;28;20041;-53
2021/09/27 03:16:13;;;;;;;10.98;6.82;;;;;;;16.70;89.55;101327.63;5033189;28;20085;-53
2021/09/27 03:18:53;;;;;;;11.35;6.15;;;;;;;16.67;89.58;101331.81;5042022;28;20086;-52
2021/09/27 03:21:45;;;;;;;11.38;6.18;;;;;;;16.69;89.72;101335.06;5035228;28;20060;-52
2021/09/27 03:24:30;;;;;;;11.93;6.97;;;;;;;16.68;89.39;101332.59;5052533;28;20048;-51
2021/09/27 03:27:19;;;;;;;12.38;6.55;;;;;;;16.65;89.37;101344.22;5049450;28;20393;-52
2021/09/27 03:30:10;;;;;;;11.27;6.82;;;;;;;16.60;89.52;101345.09;5048200;28;20388;-52
2021/09/27 03:33:12;;;;;;;9.63;5.65;;;;;;;16.59;89.79;101343.44;5035839;28;20049;-52
2021/09/27 03:36:12;;;;;;;11.10;7.00;;;;;;;16.61;90.23;101341.22;5096292;28;20048;-51
2021/09/27 03:39:06;;;;;;;12.00;7.40;;;;;;;16.66;90.11;101340.34;5009984;28;20046;-51
2021/09/27 03:41:47;;;;;;;11.75;6.97;;;;;;;16.68;90.29;101338.13;5013614;28;20124;-52
2021/09/27 03:44:39;;;;;;;11.90;7.55;;;;;;;16.70;90.26;101341.41;4996293;28;20072;-52
2021/09/27 03:47:28;;;;;;;11.65;6.70;;;;;;;16.67;90.39;101328.22;4997273;28;20743;-53
2021/09/27 03:50:16;;;;;;;17.45;8.20;;;;;;;16.64;90.43;101328.81;5012728;28;20046;-53
2021/09/27 03:53:05;;;;;;;11.07;6.93;;;;;;;16.65;90.90;101335.97;5017024;28;20038;-52
2021/09/27 03:55:44;;;;;;;13.85;7.57;;;;;;;16.68;90.86;101343.63;5012306;28;20511;-54
2021/09/27 03:58:23;;;;;;;12.15;7.50;;;;;;;16.72;90.79;101341.91;4996391;28;20089;-53
2021/09/27 04:01:11;;;;;;;11.38;7.07;;;;;;;16.76;90.60;101332.78;5012265;28;20048;-52
2021/09/27 04:04:03;;;;;;;15.48;7.70;;;;;;;16.76;90.58;101332.78;5012371;28;20551;-54
2021/09/27 04:07:02;;;;;;;15.10;7.65;;;;;;;16.67;91.21;101328.22;5015305;28;20455;-53
2021/09/27 04:09:50;;;;;;;13.48;6.88;;;;;;;16.58;91.70;101328.88;4995545;28;20044;-55
2021/09/27 04:12:28;;;;;;;19.60;7.07;;;;;;;16.54;92.26;101330.56;4991013;28;20054;-53
2021/09/27 04:15:19;;;;;;;12.15;7.43;;;;;;;16.51;92.76;101320.19;5035956;28;20044;-55
2021/09/27 04:17:56;;;;;;;12.40;7.28;;;;;;;16.50;92.92;101318.56;5099874;28;20126;-53
2021/09/27 04:20:30;;;;;;;13.68;7.60;;;;;;;16.52;93.30;101321.00;5106242;28;20070;-52
2021/09/27 04:23:08;;;;;;;9.70;6.68;;;;;;;16.56;92.87;101316.53;5102808;28;20036;-49
2021/09/27 04:25:39;;;;;;;15.63;7.50;;;;;;;16.55;92.99;101315.72;5110908;28;20051;-51
2021/09/27 04:28:27;;;;;;;12.63;7.43;;;;;;;16.50;93.28;101310.31;5106420;28;20501;-53
2021/09/27 04:31:32;;;;;;;14.20;7.60;;;;;;;16.46;93.76;101306.50;5099812;28;20036;-54
2021/09/27 04:34:31;;;;;;;12.43;7.75;;;;;;;16.50;93.88;101306.72;5112839;28;20462;-55
2021/09/27 04:37:00;;;;;;;9.75;6.38;;;;;;;16.55;93.81;101310.22;5094122;28;20048;-55
2021/09/27 04:39:32;;;;;;;11.45;7.13;;;;;;;16.55;93.84;101307.47;5106767;28;20399;-55
2021/09/27 04:42:13;;;;;;;11.10;6.95;;;;;;;16.60;93.81;101306.59;5110323;28;20048;-54
2021/09/27 04:45:05;;;;;;;12.90;7.28;;;;;;;16.61;93.22;101314.53;5106591;28;20051;-54
2021/09/27 04:48:06;;;;;;;13.88;8.07;;;;;;;16.61;93.30;101309.03;5099078;28;20046;-51
2021/09/27 04:50:57;;;;;;;14.05;7.45;;;;;;;16.63;93.12;101305.16;5097963;28;20051;-54
2021/09/27 04:53:43;;;;;;;12.25;6.97;;;;;;;16.64;93.11;101313.09;5110935;28;20406;-51
2021/09/27 04:56:33;;;;;;;12.77;7.90;;;;;;;16.60;92.92;101301.91;5101513;28;20051;-52
2021/09/27 04:59:24;;;;;;;11.95;6.53;;;;;;;16.58;93.15;101304.13;5111742;28;20090;-52
2021/09/27 05:02:23;;;;;;;11.27;7.80;;;;;;;16.50;93.50;101301.19;5108009;28;20035;-54
2021/09/27 05:05:02;;;;;;;11.70;7.72;;;;;;;16.50;93.72;101301.19;5102880;28;20043;-49
2021/09/27 05:07:47;;;;;;;14.30;8.10;;;;;;;16.48;93.65;101301.53;5086315;28;20059;-48
2021/09/27 05:10:52;;;;;;;13.80;7.45;;;;;;;16.46;93.66;101309.25;5102307;28;20051;-48
2021/09/27 05:13:46;;;;;;;11.60;8.13;;;;;;;16.48;93.87;101298.78;5104298;28;20091;-51
2021/09/27 05:16:36;;;;;;;15.60;8.63;;;;;;;16.51;93.67;101289.91;5112232;28;20493;-47
2021/09/27 05:19:36;;;;;;;11.98;8.00;;;;;;;16.50;93.85;101302.03;5109598;28;20048;-46
2021/09/27 05:22:15;;;;;;;14.25;7.93;;;;;;;16.53;93.68;101297.88;5109980;28;20048;-48
2021/09/27 05:24:46;;;;;;;13.02;7.82;;;;;;;16.54;93.68;101283.81;5106879;28;20152;-47
2021/09/27 05:27:41;;;;;;;11.75;7.95;;;;;;;16.56;93.83;101287.09;5110353;28;20050;-48
2021/09/27 05:30:33;;;;;;;12.90;7.05;;;;;;;16.57;93.62;101275.00;5099466;28;20035;-45
2021/09/27 05:33:49;;;;;;;13.23;8.07;;;;;;;16.57;93.40;101283.25;5111482;28;20092;-47
2021/09/27 05:36:33;;;;;;;11.25;7.30;;;;;;;16.58;93.12;101281.31;5036857;28;20051;-47
2021/09/27 05:39:29;;;;;;;12.73;7.32;;;;;;;16.55;93.57;101279.97;4348667;28;10000738;-48
2021/09/27 05:42:01;;;;;;;11.90;8.18;;;;;;;16.56;93.83;101278.84;5047302;28;20412;-49
2021/09/27 05:44:54;;;;;;;13.63;8.40;;;;;;;16.58;93.96;101281.31;5014193;28;20517;-48
2021/09/27 05:47:50;;;;;;;10.02;6.70;;;;;;;16.61;93.67;101275.19;5034173;28;20057;-49
2021/09/27 05:50:22;;;;;;;11.35;8.13;;;;;;;16.61;93.70;101276.00;5046598;28;20052;-49
2021/09/27 05:53:00;;;;;;;12.73;7.32;;;;;;;16.59;93.41;101278.22;5046441;28;20482;-49
2021/09/27 05:55:49;;;;;;;13.10;8.52;;;;;;;16.56;93.99;101262.31;5030021;28;20061;-47
2021/09/27 05:58:30;;;;;;;13.85;8.57;;;;;;;16.56;94.36;101265.09;5030676;28;20045;-52
2021/09/27 06:01:13;;;;;;;12.02;7.90;;;;;;;16.59;94.35;101256.22;5046258;28;20060;-53
2021/09/27 06:03:53;;;;;;;12.05;7.75;;;;;;;16.60;94.14;101271.63;5021364;28;20245;-48
2021/09/27 06:06:34;;;;;;;13.80;8.85;;;;;;;16.62;94.25;101271.34;5057825;28;20048;-52
2021/09/27 06:09:31;;;;;;;13.82;8.30;;;;;;;16.60;94.12;101268.88;5104663;28;20067;-48
2021/09/27 06:12:21;;;;;;;13.30;8.32;;;;;;;16.58;94.46;101271.09;5103973;28;20054;-49
2021/09/27 06:14:51;;;;;;;17.08;9.27;;;;;;;16.59;94.71;101269.97;5097435;28;20040;-47
2021/09/27 06:17:42;;;;;;;16.27;9.18;;;;;;;16.58;94.50;101271.09;5105699;28;20050;-49
2021/09/27 06:20:15;;;;;;;21.08;11.93;;;;;;;16.58;94.67;101276.59;5084328;28;20126;-50
2021/09/27 06:22:48;;;;;;;18.02;11.00;;;;;;;16.53;95.21;101284.94;5100195;28;20054;-49
2021/09/27 06:25:28;;;;;;;14.88;9.52;;;;;;;16.50;95.16;101287.44;5111836;28;20387;-50
2021/09/27 06:28:07;;;;;;;13.23;8.82;;;;;;;16.49;95.59;101283.88;5110240;28;20409;-50
2021/09/27 06:30:49;;;;;;;15.25;9.70;;;;;;;16.54;95.76;101280.25;5107471;28;20028;-50
2021/09/27 06:33:31;;;;;;;16.17;10.13;;;;;;;16.56;95.81;101278.03;5092283;28;20051;-50
2021/09/27 06:35:59;;;;;;;14.13;9.27;;;;;;;16.58;95.96;101282.13;5090616;28;20070;-47
2021/09/27 06:38:30;;;;;;;15.30;10.30;;;;;;;16.59;95.94;101280.97;5092705;28;20046;-48
2021/09/27 06:40:58;;;;;;;13.13;9.85;;;;;;;16.60;96.25;101279.88;5091967;28;20047;-47
2021/09/27 06:43:27;;;;;;;13.93;9.35;;;;;;;16.67;95.94;101273.19;5093862;28;20032;-49
2021/09/27 06:45:56;;;;;;;17.23;9.60;;;;;;;16.67;96.13;101263.00;5091705;28;20510;-48
2021/09/27 06:48:24;;;;;;;14.32;9.93;;;;;;;16.67;96.17;101262.16;5093114;28;20036;-48
2021/09/27 06:50:53;;;;;;;14.90;10.20;;;;;;;16.68;96.09;101266.56;5091553;28;20044;-50
2021/09/27 06:53:21;;;;;;;15.10;9.90;;;;;;;16.71;96.00;101263.22;5092426;28;20122;-50
2021/09/27 06:55:49;;;;;;;13.35;9.55;;;;;;;16.73;96.13;101266.50;5111214;28;20035;-47
2021/09/27 06:58:16;;;;;;;14.68;10.65;;;;;;;16.73;96.43;101261.00;5111764;28;20046;-49
2021/09/27 07:00:44;;;;;;;13.50;7.93;;;;;;;16.78;95.56;101258.16;5099702;28;20047;-49
2021/09/27 07:03:12;;;;;;;11.48;5.80;;;;;;;16.83;93.93;101255.34;5111964;28;20578;-46
2021/09/27 07:05:39;;;;;;;20.10;9.95;;;;;;;16.87;94.45;101256.41;5108525;28;20050;-44
2021/09/27 07:08:07;;;;;;;20.30;10.23;;;;;;;16.88;94.97;101259.97;5099797;28;20039;-51
2021/09/27 07:10:34;;;;;;;18.48;10.55;;;;;;;16.88;95.79;101246.19;5109831;28;20123;-50
2021/09/27 07:13:02;;;;;;;18.10;10.65;;;;;;;16.87;95.85;101239.88;5109877;28;20121;-47
2021/09/27 07:15:30;;;;;;;19.25;10.48;;;;;;;16.88;95.85;101248.94;5112038;28;20035;-48
2021/09/27 07:17:58;;;;;;;17.65;10.05;;;;;;;16.93;95.43;101249.69;5111663;28;20444;-51
2021/09/27 07:20:27;;;;;;;16.77;9.68;;;;;;;16.96;95.90;101248.28;5109688;28;20550;-50
2021/09/27 07:22:55;;;;;;;18.27;10.30;;;;;;;16.99;95.37;101248.47;5111090;28;20712;-46
2021/09/27 07:25:25;;;;;;;19.08;9.57;;;;;;;17.00;95.50;101239.13;5107354;28;20032;-48
2021/09/27 07:27:54;;;;;;;17.13;9.95;;;;;;;17.00;95.45;101239.13;5111486;28;20046;-50
2021/09/27 07:30:22;;;;;;;20.52;10.48;;;;;;;17.06;94.78;101241.78;5110069;28;20043;-47
2021/09/27 07:32:50;;;;;;;13.85;9.43;;;;;;;17.07;95.19;101232.41;5098266;28;20047;-49
2021/09/27 07:35:21;;;;;;;17.05;8.90;;;;;;;17.07;95.08;101243.41;5111200;28;20394;-48
2021/09/27 07:37:49;;;;;;;15.82;9.57;;;;;;;17.12;95.00;101238.63;5111271;28;20048;-47
2021/09/27 07:40:22;;;;;;;13.80;8.77;;;;;;;17.12;94.96;101248.81;5110497;28;20031;-48
2021/09/27 07:42:49;;;;;;;15.40;8.98;;;;;;;17.11;95.18;101234.25;5105489;28;20043;-49
2021/09/27 07:45:19;;;;;;;14.23;9.07;;;;;;;17.11;95.00;101236.19;5111916;28;20065;-52
2021/09/27 07:47:47;;;;;;;12.68;10.00;;;;;;;17.11;95.12;101239.75;5111497;28;20044;-49
2021/09/27 07:50:15;;;;;;;15.48;10.43;;;;;;;17.13;95.02;101231.19;5112027;28;20080;-48
2021/09/27 07:52:43;;;;;;;16.98;9.70;;;;;;;17.13;95.31;101231.19;5104868;28;20050;-49
2021/09/27 07:55:11;;;;;;;16.17;11.23;;;;;;;17.11;95.46;101234.25;5113498;28;20035;-49
2021/09/27 07:57:40;;;;;;;14.02;10.15;;;;;;;17.10;95.64;101226.28;5115425;28;20038;-48
2021/09/27 08:00:09;;;;;;;15.40;10.88;;;;;;;17.09;95.56;101235.66;5113965;28;20110;-50
2021/09/27 08:02:40;;;;;;;16.85;9.85;;;;;;;17.14;95.46;101227.31;5109624;28;20095;-52
2021/09/27 08:05:21;;;;;;;15.52;10.07;;;;;;;17.16;95.58;101225.88;5106289;28;20118;-49
2021/09/27 08:07:49;;;;;;;15.25;10.50;;;;;;;17.17;95.64;101219.28;5100859;28;20048;-48
2021/09/27 08:10:17;;;;;;;16.52;9.52;;;;;;;17.20;95.58;101224.19;5113617;28;20058;-50
2021/09/27 08:12:45;;;;;;;19.85;9.00;;;;;;;17.28;94.07;101221.84;5112499;28;20448;-48
2021/09/27 08:15:18;;;;;;;20.83;8.55;;;;;;;17.34;92.46;101226.97;5111998;28;20046;-49
2021/09/27 08:17:48;;;;;;;18.50;10.05;;;;;;;17.39;92.66;101224.09;5114604;28;20039;-50
2021/09/27 08:20:19;;;;;;;14.13;9.75;;;;;;;17.41;92.62;101227.38;5114676;28;20055;-47
2021/09/27 08:22:47;;;;;;;17.20;10.27;;;;;;;17.45;92.52;101228.38;5112557;28;20036;-49
2021/09/27 08:25:16;;;;;;;14.88;9.85;;;;;;;17.45;93.66;101222.88;5112295;28;20413;-48
2021/09/27 08:27:45;;;;;;;19.67;11.18;;;;;;;17.44;94.00;101226.75;5114295;28;20043;-49
2021/09/27 08:30:20;;;;;;;14.75;8.48;;;;;;;17.44;93.99;101213.00;5114469;28;20051;-49
2021/09/27 08:32:48;;;;;;;15.05;9.10;;;;;;;17.50;93.09;101216.44;5099716;28;20043;-48
2021/09/27 08:35:16;;;;;;;15.65;8.43;;;;;;;17.54;92.20;101216.69;5112050;28;20039;-48
2021/09/27 08:37:44;;;;;;;16.33;8.27;;;;;;;17.57;90.53;101227.06;5114120;28;20050;-47
2021/09/27 08:40:32;;;;;;;14.52;8.75;;;;;;;17.67;90.75;101210.34;5114288;28;20044;-51
2021/09/27 08:43:25;;;;;;;12.45;7.65;;;;;;;17.64;90.68;101216.47;5103541;28;20036;-49
2021/09/27 08:45:54;;;;;;;13.27;8.15;;;;;;;17.72;89.63;101226.75;5112491;28;20135;-49
2021/09/27 08:48:40;;;;;;;14.30;7.57;;;;;;;17.73;89.22;101217.38;5112138;28;20064;-50
2021/09/27 08:51:08;;;;;;;15.50;7.50;;;;;;;17.76;88.33;101216.78;5112874;28;20387;-48
2021/09/27 08:53:39;;;;;;;12.25;6.90;;;;;;;17.69;90.52;101210.84;5107122;28;20031;-49
2021/09/27 08:56:27;;;;;;;13.48;8.60;;;;;;;17.64;91.73;101213.72;5112133;28;20107;-49
2021/09/27 08:59:12;;;;;;;15.38;7.47;;;;;;;17.67;90.50;101224.94;5113705;28;20047;-48
2021/09/27 09:02:10;;;;;;;16.60;8.32;;;;;;;17.79;89.71;101224.41;5111443;28;20055;-50
2021/09/27 09:05:11;;;;;;;16.10;6.25;;;;;;;17.97;87.54;101216.38;5102266;28;20039;-50
2021/09/27 09:07:46;;;;;;;14.93;7.55;;;;;;;18.07;87.86;101213.41;5111515;28;20059;-48
2021/09/27 09:10:19;;;;;;;13.40;6.43;;;;;;;17.99;88.08;101214.94;5113839;28;20100;-49
2021/09/27 09:13:01;;;;;;;13.45;5.70;;;;;;;18.07;86.03;101205.94;5110693;28;20534;-45
2021/09/27 09:15:30;;;;;;;12.13;6.15;;;;;;;18.23;85.44;101209.19;5110437;28;20039;-48
2021/09/27 09:18:22;;;;;;;9.27;5.20;;;;;;;18.20;85.43;101208.97;5113221;28;20417;-48
2021/09/27 09:20:57;;;;;;;9.95;5.30;;;;;;;18.39;84.52;101195.03;5113381;28;20489;-49
2021/09/27 09:23:33;;;;;;;11.73;5.45;;;;;;;18.66;83.03;101200.44;5110552;28;20040;-50
2021/09/27 09:26:04;;;;;;;8.63;4.28;;;;;;;18.47;83.57;101191.50;5110791;28;20040;-48
2021/09/27 09:28:32;;;;;;;8.75;4.72;;;;;;;18.50;84.12;101201.94;5093911;28;20040;-48
2021/09/27 09:31:12;;;;;;;10.10;5.05;;;;;;;18.37;85.13;101208.31;5107725;28;20039;-49
2021/09/27 09:33:42;;;;;;;12.20;5.00;;;;;;;18.19;86.75;101202.66;5109483;28;20036;-48
2021/09/27 09:36:17;;;;;;;9.68;5.50;;;;;;;18.21;86.02;101205.91;5113227;28;20081;-49
2021/09/27 09:38:45;;;;;;;9.00;4.75;;;;;;;18.22;85.29;101204.78;5101024;28;20386;-48
2021/09/27 09:41:14;;;;;;;8.68;4.78;;;;;;;18.28;85.47;101205.50;5113024;28;20421;-48
2021/09/27 09:43:47;;;;;;;10.20;5.18;;;;;;;18.37;85.84;101202.81;5113330;28;20050;-47
2021/09/27 09:46:28;;;;;;;11.30;4.43;;;;;;;18.37;84.19;101197.28;5108427;28;20031;-48
2021/09/27 09:49:09;;;;;;;9.18;5.05;;;;;;;18.37;84.73;101211.06;5111276;28;20168;-50
2021/09/27 09:51:58;;;;;;;13.98;5.20;;;;;;;18.36;85.38;101196.47;5112665;28;20044;-51
2021/09/27 09:54:28;;;;;;;13.18;5.00;;;;;;;18.34;86.11;101201.47;5112536;28;20032;-48
2021/09/27 09:56:58;;;;;;;9.57;4.80;;;;;;;18.31;85.92;101197.41;5111133;28;20047;-48
2021/09/27 09:59:33;;;;;;;11.95;5.07;;;;;;;18.44;85.32;101179.16;5110908;28;20123;-49
2021/09/27 10:02:03;;;;;;;9.95;4.80;;;;;;;18.37;86.52;101180.72;5111093;28;20075;-48
2021/09/27 10:04:41;;;;;;;7.97;4.15;;;;;;;18.38;85.56;101180.44;5111322;28;20036;-48
2021/09/27 10:07:12;;;;;;;8.30;4.72;;;;;;;18.40;87.13;101180.09;5108867;28;20051;-51
2021/09/27 10:09:55;;;;;;;9.82;4.68;;;;;;;18.46;85.11;101189.91;5109947;28;20040;-51
2021/09/27 10:12:45;;;;;;;9.80;4.55;;;;;;;18.45;86.23;101182.75;5112100;28;20414;-52
2021/09/27 10:15:35;;;;;;;8.85;4.03;;;;;;;18.55;84.27;101174.22;5112298;27;20123;-53
2021/09/27 10:18:05;;;;;;;10.70;5.45;;;;;;;18.49;86.19;101159.72;5091074;28;20048;-49
2021/09/27 10:20:41;;;;;;;67.68;26.48;;;;;;;18.64;85.55;101168.75;5099792;28;20564;-50
2021/09/27 10:23:11;;;;;;;90.38;32.00;;;;;;;18.65;85.83;101173.97;5098569;28;20124;-48
2021/09/27 10:25:42;;;;;;;80.60;29.38;;;;;;;18.70;86.38;101171.06;5110423;28;20045;-49
2021/09/27 10:28:17;;;;;;;71.53;24.10;;;;;;;18.71;86.14;101175.50;5111956;28;20454;-48
2021/09/27 10:30:52;;;;;;;79.82;26.23;;;;;;;18.78;87.00;101171.47;5110324;28;20386;-47
2021/09/27 10:33:23;;;;;;;63.75;23.90;;;;;;;18.78;85.33;101168.72;5097304;28;20040;-48
2021/09/27 10:35:58;;;;;;;43.45;16.25;;;;;;;18.73;85.46;101166.88;5108977;28;20048;-49
2021/09/27 10:38:42;;;;;;;39.70;12.90;;;;;;;18.71;85.12;101163.59;5097843;28;20414;-47
2021/09/27 10:41:17;;;;;;;34.70;13.70;;;;;;;18.78;85.00;101157.69;5110122;28;20051;-49
2021/09/27 10:43:46;;;;;;;21.77;8.63;;;;;;;18.83;84.74;101157.53;5098790;28;20482;-49
2021/09/27 10:46:15;;;;;;;45.88;16.35;;;;;;;18.88;84.16;101158.25;5102722;28;20506;-50
2021/09/27 10:48:50;;;;;;;33.45;12.20;;;;;;;18.84;84.49;101156.44;5109026;28;20058;-48
2021/09/27 10:51:18;;;;;;;13.95;5.38;;;;;;;18.74;84.30;101158.28;5110805;28;20035;-49
2021/09/27 10:54:01;;;;;;;18.25;7.72;;;;;;;18.77;83.75;101148.59;5096557;28;20058;-50
2021/09/27 10:56:34;;;;;;;13.60;5.82;;;;;;;18.83;83.31;101150.09;5088955;28;20048;-48
2021/09/27 10:59:09;;;;;;;24.67;9.02;;;;;;;18.83;83.04;101146.50;5107446;28;20039;-50
2021/09/27 11:01:56;;;;;;;15.38;5.72;;;;;;;19.03;81.85;101143.22;5110557;28;20055;-47
2021/09/27 11:04:34;;;;;;;14.10;6.10;;;;;;;19.00;82.25;101146.63;5110523;28;20047;-48
2021/09/27 11:07:34;;;;;;;21.90;8.68;;;;;;;19.22;81.43;101145.75;5110062;28;20048;-48
2021/09/27 11:10:37;;;;;;;11.27;4.70;;;;;;;19.13;80.90;101148.44;5092613;28;20040;-47
2021/09/27 11:13:06;;;;;;;13.60;5.65;;;;;;;19.05;81.45;101143.72;5011968;28;20045;-47
2021/09/27 11:15:38;;;;;;;17.25;6.30;;;;;;;19.10;81.18;101149.09;5010806;28;20496;-46
2021/09/27 11:18:15;;;;;;;19.30;7.07;;;;;;;19.20;81.08;101145.25;4996373;28;20486;-49
2021/09/27 11:20:49;;;;;;;16.42;7.20;;;;;;;19.32;80.66;101141.88;5019804;28;20052;-47
2021/09/27 11:23:45;;;;;;;12.25;5.70;;;;;;;19.33;79.89;101147.06;5028951;28;20049;-49
2021/09/27 11:26:15;;;;;;;13.13;4.70;;;;;;;19.16;80.21;101142.28;5026132;28;20060;-48
2021/09/27 11:28:51;;;;;;;14.75;5.20;;;;;;;19.09;80.88;101147.44;5022912;28;20510;-48
2021/09/27 11:31:27;;;;;;;;;;;;;;;19.20;80.46;101147.19;5025232;28;20128;-49
2021/09/27 11:34:04;;;;;;;9.57;4.43;;;;;;;19.16;79.74;101147.81;5023642;28;19921;-46
2021/09/27 11:36:34;;;;;;;9.85;4.80;;;;;;;19.15;80.17;101135.16;5031834;28;20067;-49
2021/09/27 11:39:05;;;;;;;10.57;3.88;;;;;;;19.06;80.01;101137.06;5032423;28;20041;-48
2021/09/27 11:41:36;;;;;;;12.20;3.40;;;;;;;18.92;80.58;101125.28;5029964;28;20064;-51
2021/09/27 11:44:14;;;;;;;11.55;4.53;;;;;;;18.94;80.65;101123.03;5032187;28;20042;-49
2021/09/27 11:46:57;;;;;;;7.72;3.42;;;;;;;18.90;80.37;101133.06;5030916;28;20053;-48
2021/09/27 11:49:34;;;;;;;7.38;3.42;;;;;;;18.91;80.37;101121.72;5044587;28;20063;-49
2021/09/27 11:52:14;;;;;;;9.73;3.65;;;;;;;18.96;80.63;101120.75;5098119;28;20036;-48
2021/09/27 11:54:46;;;;;;;9.80;3.58;;;;;;;18.89;80.11;101121.22;5113439;28;20148;-50
2021/09/27 11:57:16;;;;;;;6.55;3.50;;;;;;;18.88;80.16;101118.75;5112919;28;20039;-49
2021/09/27 12:00:06;;;;;;;7.32;3.30;;;;;;;18.92;80.40;101123.31;5113845;28;20047;-47
2021/09/27 12:02:56;;;;;;;9.05;4.00;;;;;;;19.07;79.90;101119.38;5110890;28;20036;-50
2021/09/27 12:05:36;;;;;;;8.38;3.63;;;;;;;19.15;79.67;101117.75;5108613;28;20046;-46
2021/09/27 12:08:22;;;;;;;7.50;3.20;;;;;;;19.08;79.66;101118.22;5111598;28;20047;-48